createdAt,value
2022-12-18T00:01:29.353Z,114.17
2022-12-18T00:03:57.283Z,114.51
2022-12-18T00:06:26.245Z,114.58
2022-12-18T00:08:53.675Z,114.64
2022-12-18T00:11:23.321Z,114.67
2022-12-18T00:13:50.845Z,114.35
2022-12-18T00:16:21.771Z,114.11
2022-12-18T00:18:54.373Z,114.09
2022-12-18T00:21:21.315Z,113.97
2022-12-18T00:23:50.074Z,113.85
2022-12-18T00:26:20.416Z,113.67
2022-12-18T00:28:47.529Z,113.38
2022-12-18T00:31:21.128Z,112.81
2022-12-18T00:33:50.007Z,112.74
2022-12-18T00:36:25.147Z,112.55
2022-12-18T00:38:51.977Z,112.68
2022-12-18T00:41:39.713Z,112.57
2022-12-18T00:44:08.247Z,112.54
2022-12-18T00:46:35.178Z,112.47
2022-12-18T00:49:02.091Z,112.41
2022-12-18T00:51:28.790Z,111.99
2022-12-18T00:53:55.914Z,111.75
2022-12-18T00:56:22.961Z,111.69
2022-12-18T00:58:50.088Z,112.01
2022-12-18T01:01:17.822Z,111.94
2022-12-18T01:03:47.665Z,111.45
2022-12-18T01:06:16.174Z,111.73
2022-12-18T01:08:45.768Z,111.71
2022-12-18T01:11:18.381Z,111.49
2022-12-18T01:13:45.136Z,111.58
2022-12-18T01:16:16.789Z,111.68
2022-12-18T01:18:43.863Z,111.58
2022-12-18T01:21:13.218Z,111.12
2022-12-18T01:23:40.395Z,110.56
2022-12-18T01:26:14.361Z,110.13
2022-12-18T01:28:42.354Z,109.97
2022-12-18T01:31:23.687Z,110.79
2022-12-18T01:33:51.823Z,111.74
2022-12-18T01:36:21.608Z,112.44
2022-12-18T01:38:50.611Z,112.74
2022-12-18T01:41:21.274Z,112.91
2022-12-18T01:43:58.707Z,113.06
2022-12-18T01:46:26.395Z,112.84
2022-12-18T01:49:02.172Z,112.56
2022-12-18T01:51:31.619Z,112.50
2022-12-18T01:53:59.179Z,112.16
2022-12-18T01:56:25.913Z,111.76
2022-12-18T01:59:05.895Z,111.65
2022-12-18T02:01:34.131Z,111.60
2022-12-18T02:04:26.404Z,111.28
2022-12-18T02:07:11.746Z,110.94
2022-12-18T02:09:45.823Z,110.82
2022-12-18T02:12:36.638Z,110.70
2022-12-18T02:15:20.038Z,110.30
2022-12-18T02:17:55.545Z,110.46
2022-12-18T02:20:34.809Z,110.24
2022-12-18T02:23:37.213Z,110.66
2022-12-18T02:26:29.026Z,110.52
2022-12-18T02:29:28.537Z,110.70
2022-12-18T02:31:58.724Z,111.42
2022-12-18T02:34:33.582Z,111.06
2022-12-18T02:37:03.351Z,110.93
2022-12-18T02:39:31.625Z,111.07
2022-12-18T02:41:59.505Z,111.04
2022-12-18T02:44:26.317Z,110.96
2022-12-18T02:46:54.688Z,111.11
2022-12-18T02:49:52.712Z,112.44
2022-12-18T02:52:32.716Z,112.74
2022-12-18T02:55:17.801Z,112.72
2022-12-18T02:57:59.440Z,112.95
2022-12-18T03:00:36.603Z,113.32
2022-12-18T03:03:31.259Z,113.30
2022-12-18T03:06:05.384Z,112.97
2022-12-18T03:08:45.377Z,112.34
2022-12-18T03:11:14.845Z,111.54
2022-12-18T03:13:41.885Z,110.84
2022-12-18T03:16:16.580Z,111.42
2022-12-18T03:18:56.004Z,111.71
2022-12-18T03:21:29.395Z,111.59
2022-12-18T03:23:57.803Z,111.01
2022-12-18T03:26:27.070Z,111.27
2022-12-18T03:29:23.754Z,111.29
2022-12-18T03:31:55.345Z,111.52
2022-12-18T03:34:32.608Z,111.44
2022-12-18T03:36:59.425Z,110.79
2022-12-18T03:39:26.512Z,111.16
2022-12-18T03:42:00.425Z,111.07
2022-12-18T03:44:41.209Z,110.51
2022-12-18T03:47:13.548Z,110.36
2022-12-18T03:49:48.949Z,110.18
2022-12-18T03:52:25.419Z,109.56
2022-12-18T03:54:53.401Z,109.90
2022-12-18T03:57:23.153Z,109.93
2022-12-18T03:59:55.386Z,110.42
2022-12-18T04:02:24.751Z,110.57
2022-12-18T04:04:54.630Z,110.20
2022-12-18T04:07:23.220Z,110.52
2022-12-18T04:09:54.467Z,110.70
2022-12-18T04:12:21.193Z,110.04
2022-12-18T04:14:47.903Z,110.10
2022-12-18T04:17:14.603Z,110.26
2022-12-18T04:19:41.449Z,110.58
2022-12-18T04:22:11.437Z,110.34
2022-12-18T04:24:38.412Z,110.40
2022-12-18T04:27:05.430Z,110.69
2022-12-18T04:29:33.334Z,110.99
2022-12-18T04:32:00.211Z,111.14
2022-12-18T04:34:27.591Z,111.31
2022-12-18T04:36:54.228Z,111.17
2022-12-18T04:39:21.077Z,111.32
2022-12-18T04:41:47.810Z,111.08
2022-12-18T04:44:14.772Z,110.84
2022-12-18T04:46:41.729Z,110.81
2022-12-18T04:49:08.604Z,110.58
2022-12-18T04:51:35.306Z,110.00
2022-12-18T04:54:02.028Z,109.14
2022-12-18T04:56:28.797Z,109.10
2022-12-18T04:58:55.519Z,108.46
2022-12-18T05:01:22.331Z,107.67
2022-12-18T05:03:49.267Z,107.20
2022-12-18T05:06:16.097Z,107.46
2022-12-18T05:08:42.934Z,107.33
2022-12-18T05:11:11.981Z,107.65
2022-12-18T05:13:39.449Z,107.89
2022-12-18T05:16:06.946Z,108.20
2022-12-18T05:18:33.906Z,107.91
2022-12-18T05:21:00.741Z,107.88
2022-12-18T05:23:28.082Z,108.04
2022-12-18T05:25:55.961Z,107.95
2022-12-18T05:28:24.674Z,107.84
2022-12-18T05:30:52.898Z,107.56
2022-12-18T05:33:21.440Z,107.52
2022-12-18T05:36:08.344Z,106.86
2022-12-18T05:38:38.641Z,106.85
2022-12-18T05:41:05.995Z,106.56
2022-12-18T05:43:35.607Z,106.04
2022-12-18T05:46:13.003Z,106.40
2022-12-18T05:48:40.038Z,105.96
2022-12-18T05:51:09.526Z,105.76
2022-12-18T05:53:38.006Z,105.69
2022-12-18T05:56:07.067Z,105.65
2022-12-18T05:58:34.363Z,106.63
2022-12-18T06:01:13.288Z,106.26
2022-12-18T06:03:40.411Z,106.62
2022-12-18T06:06:23.263Z,106.37
2022-12-18T06:08:51.070Z,105.82
2022-12-18T06:11:23.933Z,105.44
2022-12-18T06:13:57.889Z,105.18
2022-12-18T06:16:25.924Z,104.95
2022-12-18T06:18:52.696Z,104.64
2022-12-18T06:21:19.557Z,104.44
2022-12-18T06:23:46.178Z,103.73
2022-12-18T06:26:14.079Z,102.96
2022-12-18T06:28:41.462Z,102.49
2022-12-18T06:31:10.207Z,102.51
2022-12-18T06:33:38.091Z,102.22
2022-12-18T06:36:08.398Z,101.64
2022-12-18T06:38:36.245Z,101.32
2022-12-18T06:41:11.750Z,101.00
2022-12-18T06:43:39.390Z,101.11
2022-12-18T06:46:07.047Z,101.50
2022-12-18T06:48:34.215Z,103.23
2022-12-18T06:51:01.296Z,105.23
2022-12-18T06:53:28.544Z,105.66
2022-12-18T06:56:10.398Z,105.67
2022-12-18T06:58:41.292Z,104.95
2022-12-18T07:01:11.130Z,105.57
2022-12-18T07:03:39.413Z,104.98
2022-12-18T07:06:06.993Z,114.41
2022-12-18T07:08:34.229Z,105.37
2022-12-18T07:11:04.658Z,105.96
2022-12-18T07:13:31.523Z,105.72
2022-12-18T07:16:16.057Z,106.29
2022-12-18T07:18:46.280Z,105.99
2022-12-18T07:21:17.453Z,105.21
2022-12-18T07:23:44.735Z,104.95
2022-12-18T07:26:16.380Z,104.99
2022-12-18T07:28:43.355Z,105.09
2022-12-18T07:31:19.848Z,105.41
2022-12-18T07:33:48.848Z,105.06
2022-12-18T07:36:15.918Z,104.47
2022-12-18T07:38:42.737Z,103.70
2022-12-18T07:41:14.668Z,103.81
2022-12-18T07:43:43.035Z,104.16
2022-12-18T07:46:11.164Z,103.91
2022-12-18T07:48:39.855Z,103.58
2022-12-18T07:51:07.998Z,104.10
2022-12-18T07:53:36.368Z,104.00
2022-12-18T07:56:26.514Z,103.46
2022-12-18T07:58:54.604Z,104.41
2022-12-18T08:01:21.568Z,104.35
2022-12-18T08:03:48.549Z,105.52
2022-12-18T08:06:16.622Z,104.60
2022-12-18T08:08:43.487Z,105.50
2022-12-18T08:11:10.142Z,105.27
2022-12-18T08:13:37.914Z,105.72
2022-12-18T08:16:09.097Z,106.23
2022-12-18T08:18:37.525Z,106.15
2022-12-18T08:21:11.459Z,113.10
2022-12-18T08:23:42.648Z,106.42
2022-12-18T08:26:11.226Z,105.93
2022-12-18T08:28:38.443Z,106.19
2022-12-18T08:31:05.805Z,105.62
2022-12-18T08:33:33.693Z,105.69
2022-12-18T08:36:01.721Z,105.57
2022-12-18T08:38:28.643Z,105.79
2022-12-18T08:41:09.766Z,105.34
2022-12-18T08:43:55.308Z,104.69
2022-12-18T08:46:23.577Z,104.43
2022-12-18T08:48:51.833Z,104.87
2022-12-18T08:51:18.945Z,103.59
2022-12-18T08:53:45.848Z,104.80
2022-12-18T08:56:13.396Z,104.57
2022-12-18T08:58:40.453Z,104.18
2022-12-18T09:01:12.182Z,104.48
2022-12-18T09:03:40.215Z,104.33
2022-12-18T09:06:08.051Z,104.24
2022-12-18T09:08:35.212Z,104.75
2022-12-18T09:11:01.961Z,104.78
2022-12-18T09:13:28.869Z,104.57
2022-12-18T09:15:56.685Z,103.93
2022-12-18T09:18:24.726Z,104.29
2022-12-18T09:20:53.546Z,102.12
2022-12-18T09:23:21.219Z,101.65
2022-12-18T09:25:48.243Z,101.01
2022-12-18T09:28:16.989Z,98.32
2022-12-18T09:30:49.720Z,95.64
2022-12-18T09:33:17.691Z,94.33
2022-12-18T09:35:46.009Z,95.32
2022-12-18T09:38:15.011Z,92.85
2022-12-18T09:41:05.775Z,90.96
2022-12-18T09:43:42.012Z,87.22
2022-12-18T09:46:30.732Z,91.23
2022-12-18T09:49:04.011Z,85.66
2022-12-18T09:51:39.939Z,88.46
2022-12-18T09:54:13.643Z,86.63
2022-12-18T09:56:44.195Z,86.30
2022-12-18T09:59:40.173Z,84.52
2022-12-18T10:02:16.907Z,82.29
2022-12-18T10:05:06.384Z,82.95
2022-12-18T10:08:36.084Z,84.97
2022-12-18T10:11:43.756Z,84.57
2022-12-18T10:14:35.247Z,85.42
2022-12-18T10:17:29.261Z,88.25
2022-12-18T10:20:20.857Z,86.86
2022-12-18T10:23:11.743Z,90.41
2022-12-18T10:26:01.919Z,95.42
2022-12-18T10:28:31.146Z,96.34
2022-12-18T10:30:57.987Z,87.48
2022-12-18T10:33:28.975Z,88.18
2022-12-18T10:35:56.312Z,92.28
2022-12-18T10:38:24.864Z,91.44
2022-12-18T10:41:09.705Z,89.37
2022-12-18T10:43:40.744Z,87.16
2022-12-18T10:46:10.801Z,86.93
2022-12-18T10:48:41.671Z,86.45
2022-12-18T10:51:12.328Z,85.36
2022-12-18T10:53:42.930Z,85.19
2022-12-18T10:56:09.871Z,87.52
2022-12-18T10:58:38.430Z,86.26
2022-12-18T11:01:15.865Z,85.55
2022-12-18T11:03:47.086Z,84.87
2022-12-18T11:06:15.128Z,85.90
2022-12-18T11:08:44.087Z,86.66
2022-12-18T11:11:24.618Z,86.95
2022-12-18T11:14:06.978Z,87.95
2022-12-18T11:19:41.935Z,89.43
2022-12-18T11:22:41.353Z,87.70
2022-12-18T11:25:33.509Z,89.99
2022-12-18T11:28:04.985Z,90.86
2022-12-18T11:30:34.895Z,91.66
2022-12-18T11:33:17.264Z,93.85
2022-12-18T11:35:55.532Z,93.46
2022-12-18T11:38:26.971Z,94.78
2022-12-18T11:41:21.350Z,97.10
2022-12-18T11:43:59.964Z,96.58
2022-12-18T11:46:38.460Z,97.19
2022-12-18T11:49:15.374Z,96.93
2022-12-18T11:52:10.756Z,95.76
2022-12-18T11:54:37.507Z,96.84
2022-12-18T11:57:38.356Z,97.90
2022-12-18T12:00:11.163Z,97.31
2022-12-18T12:03:09.117Z,98.24
2022-12-18T12:05:47.409Z,98.70
2022-12-18T12:08:46.919Z,100.69
2022-12-18T12:11:27.135Z,100.89
2022-12-18T12:14:21.797Z,101.60
2022-12-18T12:17:03.598Z,101.16
2022-12-18T12:20:20.096Z,101.48
2022-12-18T12:23:44.410Z,100.78
2022-12-18T12:26:19.792Z,100.90
2022-12-18T12:29:20.863Z,100.82
2022-12-18T12:32:23.678Z,100.27
2022-12-18T12:35:10.096Z,101.06
2022-12-18T12:38:08.087Z,100.41
2022-12-18T12:40:55.209Z,100.44
2022-12-18T12:43:34.381Z,102.15
2022-12-18T12:46:09.863Z,101.77
2022-12-18T12:48:48.900Z,102.49
2022-12-18T12:51:20.931Z,103.41
2022-12-18T12:53:49.760Z,103.36
2022-12-18T12:56:20.039Z,104.01
2022-12-18T12:58:50.582Z,104.46
2022-12-18T13:01:26.903Z,104.70
2022-12-18T13:04:14.181Z,104.33
2022-12-18T13:07:01.948Z,104.76
2022-12-18T13:09:34.987Z,104.56
2022-12-18T13:12:29.849Z,105.50
2022-12-18T13:15:19.476Z,104.79
2022-12-18T13:17:47.518Z,105.02
2022-12-18T13:20:17.161Z,104.38
2022-12-18T13:22:47.195Z,103.69
2022-12-18T13:25:33.054Z,103.83
2022-12-18T13:28:13.763Z,103.00
2022-12-18T13:30:49.622Z,103.92
2022-12-18T13:33:17.561Z,103.73
2022-12-18T13:35:47.260Z,104.04
2022-12-18T13:39:08.861Z,103.64
2022-12-18T13:41:35.747Z,103.66
2022-12-18T13:44:38.700Z,103.97
2022-12-18T13:47:34.576Z,105.36
2022-12-18T13:50:10.042Z,104.85
2022-12-18T13:52:40.525Z,105.28
2022-12-18T13:55:17.556Z,105.92
2022-12-18T13:57:44.990Z,105.96
2022-12-18T14:00:25.788Z,106.20
2022-12-18T14:02:53.376Z,106.27
2022-12-18T14:05:25.131Z,106.79
2022-12-18T14:07:53.607Z,107.18
2022-12-18T14:10:48.021Z,106.95
2022-12-18T14:13:11.757Z,106.66
2022-12-18T14:15:48.934Z,106.33
2022-12-18T14:18:21.502Z,106.37
2022-12-18T14:20:52.995Z,106.03
2022-12-18T14:23:37.158Z,105.83
2022-12-18T14:26:25.460Z,106.03
2022-12-18T14:28:54.778Z,106.27
2022-12-18T14:31:24.671Z,105.92
2022-12-18T14:33:52.985Z,105.75
2022-12-18T14:36:28.735Z,105.53
2022-12-18T14:38:57.656Z,105.77
2022-12-18T14:41:25.664Z,106.42
2022-12-18T14:43:54.779Z,107.11
2022-12-18T14:46:36.105Z,107.91
2022-12-18T14:49:22.960Z,107.66
2022-12-18T14:51:52.776Z,108.11
2022-12-18T14:54:21.356Z,108.33
2022-12-18T14:56:52.192Z,108.38
2022-12-18T14:59:25.036Z,108.42
2022-12-18T15:02:19.364Z,109.59
2022-12-18T15:04:46.736Z,110.04
2022-12-18T15:07:20.093Z,110.47
2022-12-18T15:10:08.893Z,110.58
2022-12-18T15:12:46.621Z,110.46
2022-12-18T15:15:35.238Z,110.43
2022-12-18T15:18:02.766Z,110.08
2022-12-18T15:20:33.575Z,110.20
2022-12-18T15:23:00.434Z,110.29
2022-12-18T15:25:33.339Z,110.39
2022-12-18T15:28:00.351Z,110.13
2022-12-18T15:30:27.362Z,110.13
2022-12-18T15:33:23.262Z,110.21
2022-12-18T15:36:06.677Z,109.55
2022-12-18T15:38:33.498Z,109.58
2022-12-18T15:41:00.556Z,109.84
2022-12-18T15:43:37.794Z,109.49
2022-12-18T15:46:13.432Z,109.49
2022-12-18T15:48:46.792Z,109.62
2022-12-18T15:51:49.675Z,109.46
2022-12-18T15:54:39.037Z,109.16
2022-12-18T15:57:26.659Z,109.43
2022-12-18T15:59:59.190Z,110.03
2022-12-18T16:02:26.852Z,109.37
2022-12-18T16:04:54.988Z,109.33
2022-12-18T16:07:25.519Z,109.68
2022-12-18T16:09:53.800Z,109.60
2022-12-18T16:12:23.243Z,109.03
2022-12-18T16:14:50.114Z,109.35
2022-12-18T16:17:17.281Z,109.37
2022-12-18T16:19:44.735Z,109.95
2022-12-18T16:22:26.492Z,109.82
2022-12-18T16:24:54.922Z,109.60
2022-12-18T16:27:23.233Z,109.81
2022-12-18T16:29:51.314Z,110.00
2022-12-18T16:32:20.668Z,110.04
2022-12-18T16:34:48.010Z,110.26
2022-12-18T16:37:16.322Z,109.86
2022-12-18T16:39:43.180Z,109.88
2022-12-18T16:42:15.571Z,109.58
2022-12-18T16:44:42.408Z,109.74
2022-12-18T16:47:10.240Z,110.10
2022-12-18T16:49:39.844Z,110.22
2022-12-18T16:52:07.082Z,110.22
2022-12-18T16:54:36.629Z,109.90
2022-12-18T16:57:05.431Z,110.09
2022-12-18T16:59:32.745Z,110.08
2022-12-18T17:01:59.704Z,110.11
2022-12-18T17:04:26.505Z,110.13
2022-12-18T17:06:53.995Z,109.87
2022-12-18T17:09:27.744Z,109.81
2022-12-18T17:11:55.340Z,109.72
2022-12-18T17:14:25.393Z,109.62
2022-12-18T17:17:19.637Z,109.00
2022-12-18T17:19:40.583Z,109.05
2022-12-18T17:22:08.633Z,109.20
2022-12-18T17:24:35.792Z,109.10
2022-12-18T17:27:04.593Z,108.98
2022-12-18T17:29:31.483Z,109.10
2022-12-18T17:32:00.584Z,109.46
2022-12-18T17:34:28.098Z,109.06
2022-12-18T17:36:55.355Z,109.27
2022-12-18T17:39:22.544Z,109.58
2022-12-18T17:41:49.836Z,109.36
2022-12-18T17:44:17.989Z,111.53
2022-12-18T17:46:46.437Z,111.16
2022-12-18T17:49:14.274Z,109.38
2022-12-18T17:51:43.111Z,109.55
2022-12-18T17:54:11.032Z,109.37
2022-12-18T17:56:38.529Z,108.90
2022-12-18T17:59:05.875Z,109.07
2022-12-18T18:01:32.732Z,108.82
2022-12-18T18:04:00.663Z,108.71
2022-12-18T18:06:27.660Z,108.27
2022-12-18T18:08:55.025Z,108.07
2022-12-18T18:11:42.662Z,108.67
2022-12-18T18:14:19.045Z,108.74
2022-12-18T18:16:50.828Z,108.51
2022-12-18T18:19:20.138Z,108.35
2022-12-18T18:21:49.857Z,108.78
2022-12-18T18:24:19.738Z,108.81
2022-12-18T18:26:47.122Z,108.98
2022-12-18T18:29:19.813Z,109.10
2022-12-18T18:31:47.211Z,109.41
2022-12-18T18:34:22.186Z,108.93
2022-12-18T18:36:51.923Z,108.75
2022-12-18T18:39:19.534Z,108.57
2022-12-18T18:41:47.849Z,108.78
2022-12-18T18:44:20.497Z,108.84
2022-12-18T18:46:50.311Z,108.71
2022-12-18T18:49:17.174Z,108.27
2022-12-18T18:51:43.947Z,108.16
2022-12-18T18:54:11.282Z,108.07
2022-12-18T18:57:04.046Z,108.70
2022-12-18T18:59:30.402Z,108.70
2022-12-18T19:02:00.694Z,108.98
2022-12-18T19:04:32.166Z,108.87
2022-12-18T19:06:59.013Z,109.43
2022-12-18T19:09:26.519Z,109.53
2022-12-18T19:12:12.255Z,109.88
2022-12-18T19:14:39.313Z,110.49
2022-12-18T19:17:06.295Z,111.03
2022-12-18T19:19:33.550Z,111.01
2022-12-18T19:22:00.333Z,110.91
2022-12-18T19:24:41.431Z,110.78
2022-12-18T19:27:11.866Z,110.63
2022-12-18T19:29:38.571Z,110.58
2022-12-18T19:32:05.655Z,110.55
2022-12-18T19:34:32.546Z,110.63
2022-12-18T19:36:59.891Z,110.55
2022-12-18T19:39:27.283Z,110.43
2022-12-18T19:41:54.728Z,110.54
2022-12-18T19:44:21.648Z,110.56
2022-12-18T19:46:51.737Z,110.52
2022-12-18T19:49:24.392Z,110.28
2022-12-18T19:51:51.962Z,110.40
2022-12-18T19:54:19.196Z,110.17
2022-12-18T19:56:46.479Z,110.17
2022-12-18T19:59:14.650Z,109.97
2022-12-18T20:01:42.151Z,110.24
2022-12-18T20:04:09.375Z,110.23
2022-12-18T20:06:47.665Z,110.39
2022-12-18T20:09:23.920Z,110.24
2022-12-18T20:11:52.388Z,110.43
2022-12-18T20:14:23.234Z,110.33
2022-12-18T20:16:54.311Z,110.17
2022-12-18T20:19:22.971Z,110.42
2022-12-18T20:21:50.159Z,110.49
2022-12-18T20:24:17.285Z,110.12
2022-12-18T20:26:44.246Z,109.90
2022-12-18T20:29:13.098Z,110.00
2022-12-18T20:31:40.468Z,110.06
2022-12-18T20:34:08.403Z,109.67
2022-12-18T20:36:37.542Z,109.52
2022-12-18T20:39:07.619Z,109.64
2022-12-18T20:41:38.147Z,110.00
2022-12-18T20:44:13.758Z,109.80
2022-12-18T20:46:56.262Z,110.07
2022-12-18T20:49:24.746Z,109.95
2022-12-18T20:51:53.075Z,109.70
2022-12-18T20:54:21.530Z,109.49
2022-12-18T20:56:48.469Z,109.62
2022-12-18T20:59:15.424Z,109.52
2022-12-18T21:01:47.564Z,109.36
2022-12-18T21:04:17.499Z,109.68
2022-12-18T21:06:50.921Z,109.59
2022-12-18T21:09:18.469Z,109.61
2022-12-18T21:12:03.800Z,109.61
2022-12-18T21:14:33.388Z,109.58
2022-12-18T21:17:01.925Z,109.33
2022-12-18T21:19:29.793Z,109.23
2022-12-18T21:21:57.429Z,109.50
2022-12-18T21:24:25.504Z,109.47
2022-12-18T21:26:52.391Z,109.52
2022-12-18T21:29:24.688Z,109.74
2022-12-18T21:31:54.487Z,109.78
2022-12-18T21:34:25.462Z,109.87
2022-12-18T21:36:52.697Z,109.59
2022-12-18T21:39:19.924Z,109.52
2022-12-18T21:42:08.211Z,109.23
2022-12-18T21:44:34.894Z,109.49
2022-12-18T21:47:13.769Z,109.26
2022-12-18T21:49:53.659Z,109.40
2022-12-18T21:52:32.241Z,109.26
2022-12-18T21:55:09.010Z,109.20
2022-12-18T21:57:40.049Z,109.20
2022-12-18T22:00:11.234Z,108.99
2022-12-18T22:02:45.829Z,109.04
2022-12-18T22:05:12.785Z,108.99
2022-12-18T22:07:40.454Z,108.90
2022-12-18T22:10:07.819Z,108.55
2022-12-18T22:12:43.402Z,108.33
2022-12-18T22:15:21.081Z,108.31
2022-12-18T22:17:50.462Z,108.19
2022-12-18T22:20:18.459Z,108.02
2022-12-18T22:22:48.200Z,108.00
2022-12-18T22:25:15.037Z,108.22
2022-12-18T22:27:41.706Z,108.47
2022-12-18T22:30:09.257Z,108.36
2022-12-18T22:32:36.190Z,108.08
2022-12-18T22:35:09.232Z,108.08
2022-12-18T22:37:37.288Z,107.82
2022-12-18T22:40:05.556Z,107.85
2022-12-18T22:42:32.826Z,108.03
2022-12-18T22:45:00.391Z,107.81
2022-12-18T22:47:30.205Z,107.29
2022-12-18T22:49:58.241Z,107.48
2022-12-18T22:52:25.438Z,107.30
2022-12-18T22:54:53.589Z,107.74
2022-12-18T22:57:22.513Z,107.62
2022-12-18T22:59:50.319Z,107.59
2022-12-18T23:02:18.132Z,107.21
2022-12-18T23:04:45.064Z,107.33
2022-12-18T23:07:12.756Z,106.96
2022-12-18T23:09:40.141Z,107.26
2022-12-18T23:12:07.502Z,106.91
2022-12-18T23:14:34.336Z,106.88
2022-12-18T23:17:01.583Z,106.69
2022-12-18T23:19:29.074Z,106.73
2022-12-18T23:21:58.570Z,106.56
2022-12-18T23:24:26.194Z,106.37
2022-12-18T23:26:52.954Z,106.03
2022-12-18T23:29:20.145Z,106.26
2022-12-18T23:31:47.410Z,106.27
2022-12-18T23:34:14.734Z,105.85
2022-12-18T23:36:46.680Z,105.90
2022-12-18T23:39:28.958Z,105.83
2022-12-18T23:42:00.643Z,105.52
2022-12-18T23:44:28.052Z,105.56
2022-12-18T23:46:55.522Z,105.12
2022-12-18T23:49:22.659Z,104.56
2022-12-18T23:51:49.929Z,104.31
2022-12-18T23:54:16.656Z,104.18
2022-12-18T23:56:43.642Z,103.86
2022-12-18T23:59:10.558Z,104.08
